Time;durP1;ratioP1;P1;durP2;ratioP2;P2;SDS_P1;SDS_P2;PMS_P1;PMS_P2;Temp;Humidity;BMP_temperature;BMP_pressure;BME280_temperature;BME280_humidity;BME280_pressure;Samples;Min_cycle;Max_cycle;Signal;HPM_P1;HPM_P2
2021/08/31 00:00:16;;;;;;;;;8.00;6.00;;;;;18.25;63.42;101152.81;5017140;28;45177;-89
2021/08/31 00:02:42;;;;;;;;;7.25;5.25;;;;;18.07;63.72;101130.03;5016930;28;47304;-89
2021/08/31 00:05:11;;;;;;;;;6.00;5.50;;;;;18.05;63.61;101132.84;5016952;28;46167;-90
2021/08/31 00:07:36;;;;;;;;;7.25;5.50;;;;;18.23;63.23;101170.09;5016852;28;45145;-90
2021/08/31 00:10:03;;;;;;;;;9.00;6.75;;;;;18.13;63.34;101166.38;5016835;28;45225;-90
2021/08/31 00:12:28;;;;;;;;;5.75;5.00;;;;;18.09;63.73;101163.09;5016780;28;48239;-89
2021/08/31 00:14:54;;;;;;;;;8.50;5.00;;;;;17.85;63.64;101118.22;5016450;28;45263;-91
2021/08/31 00:17:19;;;;;;;;;6.50;5.50;;;;;17.97;63.37;101140.69;5016309;28;45236;-89
2021/08/31 00:19:45;;;;;;;;;5.50;4.25;;;;;18.04;63.70;101160.75;5016664;28;45270;-90
2021/08/31 00:22:10;;;;;;;;;8.00;6.00;;;;;17.96;63.47;101146.16;5016739;28;48013;-91
2021/08/31 00:24:36;;;;;;;;;9.50;5.00;;;;;17.94;63.43;101154.34;5015488;28;45371;-89
2021/08/31 00:27:01;;;;;;;;;8.50;5.75;;;;;17.92;63.33;101150.94;5016666;28;45303;-91
2021/08/31 00:29:27;;;;;;;;;6.25;5.00;;;;;17.87;63.43;101156.63;5016807;28;45407;-90
2021/08/31 00:31:52;;;;;;;;;9.00;8.00;;;;;17.74;63.48;101137.00;5016631;28;47115;-91
2021/08/31 00:34:18;;;;;;;;;8.00;6.00;;;;;17.58;64.14;101127.41;5016169;28;46055;-91
2021/08/31 00:36:43;;;;;;;;;5.00;5.00;;;;;17.74;63.84;101159.41;5016714;28;45206;-90
2021/08/31 00:39:09;;;;;;;;;8.50;4.50;;;;;17.74;63.90;101158.53;5016653;28;45177;-91
2021/08/31 00:41:36;;;;;;;;;5.00;5.00;;;;;17.77;64.23;101163.66;5021303;28;46968;-89
2021/08/31 00:44:02;;;;;;;;;7.25;6.00;;;;;17.72;64.16;101155.13;5019442;28;45709;-89
2021/08/31 00:46:28;;;;;;;;;5.75;5.75;;;;;17.75;64.43;101158.41;5016541;28;45074;-89
2021/08/31 00:48:53;;;;;;;;;6.00;5.75;;;;;17.84;63.83;101173.00;5016603;28;45401;-89
2021/08/31 00:51:28;;;;;;;;;7.75;5.75;;;;;17.83;63.68;101173.97;5015973;28;47418;-91
2021/08/31 00:53:53;;;;;;;;;6.25;6.00;;;;;17.84;64.17;101175.72;5016216;28;45627;-89
2021/08/31 00:56:20;;;;;;;;;7.25;5.75;;;;;17.60;64.30;101132.72;5016076;28;45244;-89
2021/08/31 00:58:46;;;;;;;;;7.25;5.75;;;;;17.74;63.71;101156.72;5016165;28;45342;-90
2021/08/31 01:01:11;;;;;;;;;5.00;4.75;;;;;17.80;64.13;101162.59;5015686;28;47079;-90
2021/08/31 01:03:37;;;;;;;;;12.75;6.75;;;;;17.69;64.23;101141.91;5015945;28;45251;-91
2021/08/31 01:06:03;;;;;;;;;8.75;6.00;;;;;17.69;63.94;101137.38;5016129;28;45177;-90
2021/08/31 01:08:29;;;;;;;;;5.50;4.50;;;;;17.91;64.22;101166.22;5016049;28;45244;-89
2021/08/31 01:10:59;;;;;;;;;7.25;5.75;;;;;17.72;64.05;101133.59;5015874;28;48317;-90
2021/08/31 01:13:24;;;;;;;;;6.00;6.00;;;;;17.73;64.05;101138.00;5016011;28;45492;-89
2021/08/31 01:15:50;;;;;;;;;9.50;7.25;;;;;17.75;64.14;101142.28;5016034;28;45294;-90
2021/08/31 01:18:21;;;;;;;;;7.50;6.00;;;;;17.83;64.28;101154.28;5015797;28;45466;-88
2021/08/31 01:20:49;;;;;;;;;5.75;5.00;;;;;17.94;64.02;101173.19;5015748;28;48282;-90
2021/08/31 01:23:15;;;;;;;;;5.25;4.75;;;;;17.86;63.95;101167.50;5016014;28;45533;-90
2021/08/31 01:25:43;;;;;;;;;6.50;5.00;;;;;17.87;64.09;101158.44;5015800;28;45303;-91
2021/08/31 01:28:14;;;;;;;;;4.50;4.50;;;;;17.92;64.51;101175.97;5015929;28;45153;-91
2021/08/31 01:30:40;;;;;;;;;9.50;5.25;;;;;17.85;64.17;101163.94;5015548;28;47621;-91
2021/08/31 01:33:09;;;;;;;;;8.00;7.00;;;;;17.82;64.16;101171.41;5015885;28;45805;-89
2021/08/31 01:35:35;;;;;;;;;7.75;5.00;;;;;17.82;64.04;101164.19;5015561;28;45254;-90
2021/08/31 01:38:00;;;;;;;;;9.25;5.75;;;;;17.93;64.13;101176.88;5015675;28;45200;-89
2021/08/31 01:40:25;;;;;;;;;7.50;4.00;;;;;17.92;63.80;101175.13;5015114;28;47062;-91
2021/08/31 01:42:51;;;;;;;;;4.50;3.25;;;;;17.74;64.10;101151.34;5010007;28;45260;-89
2021/08/31 01:45:16;;;;;;;;;6.00;4.00;;;;;17.80;64.21;101151.81;5007547;28;45184;-90
2021/08/31 01:47:41;;;;;;;;;5.00;5.00;;;;;17.79;63.65;101150.13;5018270;28;45267;-90
2021/08/31 01:50:07;;;;;;;;;5.75;5.00;;;;;17.87;64.06;101175.47;5000517;28;48305;-89
2021/08/31 01:52:33;;;;;;;;;5.75;4.00;;;;;17.74;64.11;101155.84;5014105;28;46018;-91
2021/08/31 01:54:58;;;;;;;;;6.25;4.00;;;;;17.74;64.22;101151.34;5012526;28;45602;-91
2021/08/31 01:57:23;;;;;;;;;6.50;5.00;;;;;17.73;64.38;101156.84;5030468;28;45397;-89
2021/08/31 01:59:49;;;;;;;;;6.50;5.50;;;;;17.62;64.55;101137.97;5014657;28;46935;-89
2021/08/31 02:02:14;;;;;;;;;6.00;5.00;;;;;17.62;64.51;101137.97;5011832;28;45270;-90
2021/08/31 02:04:40;;;;;;;;;6.00;4.25;;;;;17.71;64.32;101161.47;5013587;28;45245;-91
2021/08/31 02:07:05;;;;;;;;;7.75;4.75;;;;;17.72;64.26;101155.97;5014358;28;45106;-89
2021/08/31 02:09:30;;;;;;;;;8.25;5.25;;;;;17.67;64.59;101151.91;5015578;28;47357;-90
2021/08/31 02:11:56;;;;;;;;;5.00;4.50;;;;;17.43;64.65;101118.69;5013449;28;45370;-90
2021/08/31 02:14:21;;;;;;;;;5.00;4.75;;;;;17.59;64.42;101150.66;5015495;28;45327;-91
2021/08/31 02:16:46;;;;;;;;;5.50;5.25;;;;;17.38;64.71;101111.94;5002033;28;45415;-91
2021/08/31 02:19:12;;;;;;;;;6.50;5.25;;;;;17.38;64.41;101118.19;5013078;28;47866;-90
2021/08/31 02:21:37;;;;;;;;;8.50;5.00;;;;;17.62;64.73;101165.72;5013598;28;46246;-90
2021/08/31 02:24:03;;;;;;;;;6.75;5.50;;;;;17.44;64.59;101138.38;5010963;28;45220;-89
2021/08/31 02:26:31;;;;;;;;;7.75;5.75;;;;;17.44;64.90;101143.75;5029905;28;45211;-90
2021/08/31 02:28:56;;;;;;;;;7.50;6.50;;;;;17.58;64.65;101167.75;5007631;28;47212;-90
2021/08/31 02:31:21;;;;;;;;;6.50;6.00;;;;;17.53;65.11;101163.69;5022903;28;45203;-90
2021/08/31 02:33:47;;;;;;;;;9.75;7.00;;;;;17.46;64.77;101157.94;5001323;28;45251;-88
2021/08/31 02:36:12;;;;;;;;;8.75;4.75;;;;;17.59;64.61;101174.84;5013287;28;45255;-91
2021/08/31 02:38:37;;;;;;;;;4.00;4.00;;;;;17.47;64.74;101159.63;5015099;28;48423;-90
2021/08/31 02:41:03;;;;;;;;;4.75;4.75;;;;;17.38;64.99;101130.78;5015010;28;45916;-89
2021/08/31 02:43:28;;;;;;;;;7.00;4.00;;;;;17.62;65.08;101175.63;5015435;28;45239;-89
2021/08/31 02:45:53;;;;;;;;;8.50;4.75;;;;;17.62;64.90;101178.31;5015922;28;45331;-89
2021/08/31 02:48:19;;;;;;;;;6.25;4.25;;;;;17.57;65.22;101163.38;5020878;28;46969;-89
2021/08/31 02:50:44;;;;;;;;;5.50;5.25;;;;;17.60;64.90;101165.81;5022312;28;45303;-90
2021/08/31 02:53:10;;;;;;;;;8.50;3.75;;;;;17.40;65.08;101127.00;5017481;28;45290;-91
2021/08/31 02:55:35;;;;;;;;;9.00;5.25;;;;;17.38;65.02;101126.25;5018206;28;45347;-89
2021/08/31 02:58:00;;;;;;;;;4.75;4.75;;;;;17.57;65.06;101155.31;5018097;28;47346;-89
2021/08/31 03:00:30;;;;;;;;;7.75;5.00;;;;;17.47;64.75;101130.06;5018067;28;45175;-89
2021/08/31 03:02:56;;;;;;;;;9.00;5.50;;;;;17.41;64.92;101117.97;5018464;28;45132;-89
2021/08/31 03:05:21;;;;;;;;;7.00;4.00;;;;;17.64;64.81;101154.81;5017499;28;45182;-90
2021/08/31 03:07:47;;;;;;;;;6.00;4.75;;;;;17.64;64.60;101157.53;5018151;28;47077;-90
2021/08/31 03:10:12;;;;;;;;;6.25;4.25;;;;;17.43;64.97;101131.28;5017829;28;45520;-91
2021/08/31 03:12:37;;;;;;;;;5.75;5.00;;;;;17.38;64.70;101120.88;5019362;28;45196;-90
2021/08/31 03:15:04;;;;;;;;;7.00;7.00;;;;;17.59;64.77;101149.81;5018050;28;45255;-90
2021/08/31 03:17:29;;;;;;;;;6.00;5.00;;;;;17.41;65.15;101125.16;5022218;28;48221;-91
2021/08/31 03:19:55;;;;;;;;;4.50;4.50;;;;;17.57;65.27;101155.31;5025384;28;45167;-90
2021/08/31 03:22:20;;;;;;;;;8.00;5.25;;;;;17.48;64.94;101139.84;5018022;28;45237;-90
2021/08/31 03:24:46;;;;;;;;;6.75;4.75;;;;;17.34;65.48;101119.38;5017626;28;45452;-89
2021/08/31 03:27:11;;;;;;;;;6.75;4.75;;;;;17.42;65.41;101135.78;5017640;28;47119;-91
2021/08/31 03:29:37;;;;;;;;;5.75;4.50;;;;;17.40;65.40;101134.19;5017665;28;45626;-90
2021/08/31 03:32:02;;;;;;;;;9.75;7.00;;;;;17.22;65.00;101106.88;5017782;28;45251;-89
2021/08/31 03:34:28;;;;;;;;;5.75;5.75;;;;;17.42;65.26;101143.00;5017383;28;45367;-89
2021/08/31 03:36:53;;;;;;;;;6.00;5.00;;;;;17.31;65.12;101122.28;5017314;28;47321;-90
2021/08/31 03:39:19;;;;;;;;;5.75;5.00;;;;;17.40;65.57;101139.56;5017304;28;45290;-90
2021/08/31 03:41:44;;;;;;;;;7.75;6.50;;;;;17.41;65.40;101146.66;5017470;28;45093;-89
2021/08/31 03:44:10;;;;;;;;;4.50;4.50;;;;;17.38;65.23;101147.75;5017652;28;45327;-92
2021/08/31 03:46:35;;;;;;;;;8.75;6.00;;;;;17.17;65.64;101109.91;5017225;28;47225;-91
2021/08/31 03:49:01;;;;;;;;;6.00;4.00;;;;;17.49;65.15;101173.00;5017333;28;45132;-90
2021/08/31 03:51:26;;;;;;;;;7.50;5.25;;;;;17.37;65.64;101155.94;5033687;28;45138;-88
2021/08/31 03:53:52;;;;;;;;;6.25;6.25;;;;;17.40;65.54;101163.75;5034305;28;45088;-91
2021/08/31 03:56:17;;;;;;;;;5.00;5.00;;;;;17.36;65.46;101160.44;5016917;28;47365;-90
2021/08/31 03:58:42;;;;;;;;;8.00;6.00;;;;;17.47;65.68;101186.50;5016747;28;45122;-90
2021/08/31 04:01:08;;;;;;;;;6.00;4.25;;;;;17.16;65.67;101129.69;5016347;28;45294;-91
2021/08/31 04:03:33;;;;;;;;;7.50;6.00;;;;;17.38;64.96;101169.25;5016330;28;45161;-90
2021/08/31 04:05:58;;;;;;;;;7.00;6.25;;;;;17.37;65.86;101164.88;5016919;28;47123;-90
2021/08/31 04:08:24;;;;;;;;;10.50;6.25;;;;;17.29;65.35;101152.94;5016954;28;45208;-89
2021/08/31 04:10:49;;;;;;;;;8.25;5.75;;;;;17.38;65.17;101166.56;5016907;28;45241;-89
2021/08/31 04:13:18;;;;;;;;;6.00;5.00;;;;;17.38;65.71;101171.09;5016740;28;45386;-90
2021/08/31 04:15:43;;;;;;;;;5.75;5.50;;;;;17.48;65.64;101185.56;5015668;28;47617;-89
2021/08/31 04:18:09;;;;;;;;;5.50;5.50;;;;;17.41;65.27;101173.53;5016697;28;45143;-88
2021/08/31 04:20:34;;;;;;;;;12.00;6.75;;;;;17.40;65.87;101159.25;5017335;28;45282;-89
2021/08/31 04:23:00;;;;;;;;;9.25;5.25;;;;;17.44;65.75;101181.38;5017578;28;45250;-89
2021/08/31 04:25:25;;;;;;;;;7.25;4.50;;;;;17.50;65.34;101190.81;5016702;28;48069;-89
2021/08/31 04:27:50;;;;;;;;;7.00;6.50;;;;;17.18;65.48;101137.63;5016231;28;45094;-90
2021/08/31 04:30:16;;;;;;;;;12.00;9.50;;;;;17.37;65.63;101182.81;5016030;28;45203;-90
2021/08/31 04:32:41;;;;;;;;;5.00;4.25;;;;;17.30;66.02;101160.03;5016943;28;45149;-91
2021/08/31 04:35:07;;;;;;;;;6.25;6.25;;;;;17.40;65.44;101186.13;5016381;28;47223;-89
2021/08/31 04:37:32;;;;;;;;;9.00;6.00;;;;;17.37;66.00;101182.81;5017310;28;45090;-89
2021/08/31 04:39:59;;;;;;;;;7.00;6.00;;;;;17.19;65.47;101150.09;5016784;28;45254;-89
2021/08/31 04:42:24;;;;;;;;;10.25;5.00;;;;;17.48;65.51;101206.22;5016720;28;45485;-90
2021/08/31 04:44:50;;;;;;;;;10.75;8.50;;;;;17.49;65.59;101210.63;5016355;28;47200;-90
2021/08/31 04:47:16;;;;;;;;;7.50;5.00;;;;;17.23;65.81;101163.19;5016651;28;45237;-90
2021/08/31 04:49:41;;;;;;;;;8.00;6.75;;;;;17.26;65.55;101172.88;5016901;28;45195;-89
2021/08/31 04:52:07;;;;;;;;;7.25;6.00;;;;;17.22;66.03;101168.69;5016580;28;45311;-89
2021/08/31 04:54:32;;;;;;;;;11.00;7.25;;;;;17.40;65.44;101198.69;5032705;28;47644;-91
2021/08/31 04:56:58;;;;;;;;;8.50;5.50;;;;;17.30;65.68;101184.22;5015889;28;45454;-90
2021/08/31 04:59:24;;;;;;;;;9.75;8.00;;;;;17.37;65.87;101191.75;5016251;28;45272;-90
2021/08/31 05:01:50;;;;;;;;;9.50;6.00;;;;;17.27;66.09;101174.56;5016414;28;45196;-89
2021/08/31 05:04:15;;;;;;;;;12.50;9.00;;;;;17.35;65.55;101192.81;5032391;28;48428;-92
2021/08/31 05:06:41;;;;;;;;;11.50;8.00;;;;;17.41;65.91;101195.94;5016009;28;45191;-89
2021/08/31 05:09:06;;;;;;;;;10.25;9.25;;;;;17.32;66.12;101177.78;5015983;28;45515;-89
2021/08/31 05:11:31;;;;;;;;;9.75;8.25;;;;;17.54;65.85;101216.50;5015517;28;45179;-89
2021/08/31 05:13:57;;;;;;;;;11.00;9.00;;;;;17.53;66.19;101212.97;5015966;28;47568;-89
2021/08/31 05:16:22;;;;;;;;;12.75;9.25;;;;;17.30;65.93;101178.84;5016053;28;45977;-90
2021/08/31 05:18:48;;;;;;;;;12.00;10.25;;;;;17.38;65.85;101195.28;5015507;28;45156;-90
2021/08/31 05:21:13;;;;;;;;;12.00;9.00;;;;;17.24;66.22;101166.72;5016102;28;45168;-90
2021/08/31 05:23:39;;;;;;;;;7.75;7.75;;;;;17.56;65.96;101223.47;5016143;28;48063;-90
2021/08/31 05:26:05;;;;;;;;;11.00;8.50;;;;;17.25;66.22;101171.13;5016095;28;45926;-88
2021/08/31 05:28:30;;;;;;;;;14.50;10.50;;;;;17.38;65.74;101192.59;5016247;28;45180;-88
2021/08/31 05:30:56;;;;;;;;;13.00;8.25;;;;;17.56;66.21;101228.00;5016034;28;45232;-89
2021/08/31 05:33:21;;;;;;;;;12.00;10.75;;;;;17.40;66.13;101198.69;5015992;28;47348;-88
2021/08/31 05:35:47;;;;;;;;;12.00;8.50;;;;;17.41;65.79;101208.50;5015713;28;45323;-89
2021/08/31 05:38:13;;;;;;;;;14.50;10.00;;;;;17.39;65.86;101197.84;5015342;28;45261;-88
2021/08/31 05:40:38;;;;;;;;;16.25;12.00;;;;;17.46;66.15;101210.81;5015561;28;45321;-89
2021/08/31 05:43:03;;;;;;;;;13.50;11.75;;;;;17.60;66.31;101235.72;5015632;28;48184;-88
2021/08/31 05:45:29;;;;;;;;;12.00;9.00;;;;;17.62;66.15;101238.31;5015322;28;45233;-88
2021/08/31 05:47:55;;;;;;;;;16.75;12.75;;;;;17.40;65.81;101201.38;5015691;28;45190;-89
2021/08/31 05:50:21;;;;;;;;;15.00;11.50;;;;;17.60;66.25;101242.94;5015780;28;45249;-88
2021/08/31 05:52:46;;;;;;;;;14.25;12.50;;;;;17.41;66.62;101211.19;5016475;28;48041;-89
2021/08/31 05:55:12;;;;;;;;;15.00;12.75;;;;;17.41;66.09;101214.75;5022051;28;45268;-88
2021/08/31 05:57:37;;;;;;;;;19.75;14.25;;;;;17.47;66.35;101226.84;5039625;28;45222;-88
2021/08/31 06:00:11;;;;;;;;;16.00;12.25;;;;;17.48;66.33;101225.03;5015485;28;45386;-88
2021/08/31 06:02:38;;;;;;;;;16.75;14.00;;;;;17.26;66.51;101183.63;5032096;28;47497;-88
2021/08/31 06:05:05;;;;;;;;;16.50;15.00;;;;;17.49;66.62;101227.59;5032134;28;45628;-88
2021/08/31 06:07:34;;;;;;;;;16.00;13.25;;;;;17.51;66.46;101227.50;5015285;28;45267;-88
2021/08/31 06:09:59;;;;;;;;;18.00;14.50;;;;;17.65;66.47;101242.59;5015068;28;45256;-82
2021/08/31 06:12:24;;;;;;;;;15.75;13.75;;;;;17.68;66.63;101248.59;5015774;28;45268;-80
2021/08/31 06:14:50;;;;;;;;;18.25;15.25;;;;;17.66;66.85;101244.28;5015775;28;45360;-83
2021/08/31 06:17:18;;;;;;;;;17.50;15.00;;;;;17.76;66.32;101253.41;5016074;28;45308;-85
2021/08/31 06:19:44;;;;;;;;;21.75;15.00;;;;;17.82;66.63;101255.63;5015601;28;45418;-82
2021/08/31 06:22:09;;;;;;;;;17.00;14.75;;;;;17.85;66.20;101263.47;5015828;28;46125;-85
2021/08/31 06:24:34;;;;;;;;;20.00;16.50;;;;;17.89;66.12;101258.75;5018348;28;45256;-85
2021/08/31 06:27:00;;;;;;;;;20.00;15.00;;;;;17.94;66.29;101261.94;5018323;28;45196;-86
2021/08/31 06:29:25;;;;;;;;;16.75;15.25;;;;;17.98;66.30;101255.38;5018262;28;45248;-87
2021/08/31 06:31:50;;;;;;;;;16.75;13.50;;;;;18.02;65.80;101266.78;5019406;28;45254;-86
2021/08/31 06:34:16;;;;;;;;;21.50;12.50;;;;;18.02;65.94;101259.56;5018994;28;45313;-85
2021/08/31 06:36:41;;;;;;;;;16.50;14.75;;;;;18.07;65.85;101261.88;5019070;28;45178;-84
2021/08/31 06:39:06;;;;;;;;;20.50;15.25;;;;;18.08;65.67;101266.31;5018810;28;45193;-84
2021/08/31 06:41:32;;;;;;;;;15.75;11.00;;;;;18.07;65.89;101270.84;5018878;28;45231;-84
2021/08/31 06:43:57;;;;;;;;;18.50;15.75;;;;;18.05;65.57;101267.38;5018743;28;45279;-85
2021/08/31 06:46:23;;;;;;;;;17.50;15.25;;;;;18.05;65.84;101262.00;5018452;28;45187;-84
2021/08/31 06:48:48;;;;;;;;;21.50;16.25;;;;;18.05;65.84;101264.69;5018671;28;45305;-84
2021/08/31 06:51:14;;;;;;;;;18.00;16.25;;;;;18.03;65.73;101263.97;5018172;28;45297;-85
2021/08/31 06:53:41;;;;;;;;;14.75;14.00;;;;;18.04;66.29;101260.31;5018692;28;45500;-84
2021/08/31 06:56:07;;;;;;;;;16.25;15.25;;;;;18.05;66.00;101263.84;5018639;28;45076;-84
2021/08/31 06:58:33;;;;;;;;;14.50;13.50;;;;;18.07;66.13;101267.25;5018572;28;45235;-82
2021/08/31 07:00:58;;;;;;;;;18.50;15.00;;;;;18.07;65.62;101261.88;5018543;28;45949;-83
2021/08/31 07:03:23;;;;;;;;;15.50;15.50;;;;;17.98;66.17;101252.69;5018505;28;45144;-83
2021/08/31 07:05:49;;;;;;;;;19.00;15.25;;;;;18.03;66.14;101277.41;5018859;28;45175;-85
2021/08/31 07:08:14;;;;;;;;;16.50;14.00;;;;;18.05;66.01;101272.75;5018774;28;45493;-84
2021/08/31 07:10:40;;;;;;;;;20.50;16.75;;;;;18.07;66.04;101275.34;5018171;28;46192;-83
2021/08/31 07:13:05;;;;;;;;;18.75;16.25;;;;;18.07;66.08;101269.97;5017947;28;45246;-84
2021/08/31 07:15:31;;;;;;;;;23.25;17.75;;;;;18.09;66.25;101270.72;5018039;28;45242;-84
2021/08/31 07:17:57;;;;;;;;;16.75;15.25;;;;;18.12;65.79;101267.78;5018061;28;45356;-84
2021/08/31 07:20:22;;;;;;;;;20.25;18.50;;;;;18.04;66.21;101252.25;5018032;28;45308;-85
2021/08/31 07:22:47;;;;;;;;;25.50;18.50;;;;;18.11;65.96;101275.00;5018130;28;45206;-84
2021/08/31 07:25:13;;;;;;;;;22.75;19.00;;;;;18.08;66.02;101277.06;5018460;28;45195;-84
2021/08/31 07:27:38;;;;;;;;;21.25;16.50;;;;;18.07;65.94;101276.22;5018383;28;45139;-84
2021/08/31 07:30:04;;;;;;;;;21.75;16.75;;;;;18.07;65.95;101265.44;5017781;28;46249;-84
2021/08/31 07:32:30;;;;;;;;;20.25;18.25;;;;;18.09;66.28;101268.03;5017967;28;45159;-85
2021/08/31 07:34:55;;;;;;;;;22.50;17.75;;;;;18.09;66.24;101266.19;5017961;28;45270;-85
2021/08/31 07:37:20;;;;;;;;;24.00;21.00;;;;;18.08;66.02;101267.16;5018211;28;45225;-85
2021/08/31 07:39:46;;;;;;;;;25.00;18.75;;;;;18.09;65.50;101279.63;5017883;28;45878;-84
2021/08/31 07:42:11;;;;;;;;;23.50;20.00;;;;;18.15;65.46;101270.25;5017843;28;45195;-84
2021/08/31 07:44:36;;;;;;;;;24.50;18.50;;;;;18.17;65.69;101281.75;5017781;28;45127;-84
2021/08/31 07:47:02;;;;;;;;;22.75;19.50;;;;;18.17;65.53;101281.75;5017953;28;45262;-85
2021/08/31 07:49:28;;;;;;;;;25.00;21.25;;;;;18.15;65.98;101274.78;5017629;28;46042;-85
2021/08/31 07:51:53;;;;;;;;;26.00;22.25;;;;;18.21;66.20;101279.69;5017690;28;45199;-84
2021/08/31 07:54:19;;;;;;;;;20.00;20.00;;;;;18.24;65.76;101277.63;5017704;28;45258;-84
2021/08/31 07:56:44;;;;;;;;;25.50;20.50;;;;;18.27;65.63;101282.78;5017377;28;45199;-84
2021/08/31 07:59:10;;;;;;;;;24.25;21.50;;;;;18.29;65.58;101288.03;5016283;28;46051;-84
2021/08/31 08:01:35;;;;;;;;;22.75;19.25;;;;;18.32;65.32;101287.78;5017467;28;45191;-84
2021/08/31 08:04:01;;;;;;;;;23.00;18.75;;;;;18.37;64.91;101287.44;5017674;28;45187;-85
2021/08/31 08:06:26;;;;;;;;;27.75;21.25;;;;;18.39;65.44;101283.66;5017827;28;45304;-85
2021/08/31 08:08:52;;;;;;;;;23.75;21.25;;;;;18.40;64.98;101288.06;5017400;28;46106;-85
2021/08/31 08:11:18;;;;;;;;;20.00;19.00;;;;;18.49;65.35;101293.72;5017545;28;45195;-85
2021/08/31 08:13:44;;;;;;;;;24.50;23.50;;;;;18.57;65.10;101292.16;5017393;28;45199;-85
2021/08/31 08:16:09;;;;;;;;;22.25;19.50;;;;;18.65;65.23;101294.25;5017302;28;45183;-83
2021/08/31 08:18:34;;;;;;;;;25.75;21.00;;;;;18.77;64.91;101293.28;5017142;28;45834;-85
2021/08/31 08:21:00;;;;;;;;;27.50;24.75;;;;;18.91;64.76;101304.84;5017020;28;45281;-85
2021/08/31 08:23:25;;;;;;;;;25.25;18.75;;;;;18.97;63.99;101302.53;5017231;28;45650;-84
2021/08/31 08:25:51;;;;;;;;;22.25;19.75;;;;;19.06;63.74;101303.63;5017075;28;45204;-84
2021/08/31 08:28:17;;;;;;;;;19.50;19.50;;;;;19.08;64.18;101290.03;5016989;28;46248;-84
2021/08/31 08:30:43;;;;;;;;;27.25;22.50;;;;;19.21;63.77;101300.69;5017179;28;45085;-85
2021/08/31 08:33:08;;;;;;;;;23.25;19.00;;;;;19.30;63.29;101303.50;5017380;28;45183;-84
2021/08/31 08:35:34;;;;;;;;;24.75;20.75;;;;;19.38;62.95;101300.22;5017015;28;45080;-85
2021/08/31 08:37:59;;;;;;;;;23.00;20.75;;;;;19.41;62.98;101308.06;5017083;28;45249;-84
2021/08/31 08:40:26;;;;;;;;;29.75;22.75;;;;;19.47;62.57;101312.09;5016800;28;45240;-85
2021/08/31 08:42:52;;;;;;;;;25.75;24.00;;;;;19.51;62.27;101312.69;5017313;28;45321;-85
2021/08/31 08:45:19;;;;;;;;;19.75;18.75;;;;;19.55;62.30;101319.53;5016109;28;45372;-85
2021/08/31 08:47:44;;;;;;;;;23.50;23.50;;;;;19.55;62.54;101317.69;5016979;28;46122;-91
2021/08/31 08:50:10;;;;;;;;;27.75;23.50;;;;;19.62;62.69;101309.97;5047357;28;44593;-82
2021/08/31 08:52:36;;;;;;;;;19.00;17.50;;;;;19.70;62.16;101320.16;5048610;28;44662;-81
2021/08/31 08:55:02;;;;;;;;;21.50;17.50;;;;;19.79;62.03;101314.00;5047963;28;44596;-80
2021/08/31 08:57:29;;;;;;;;;21.75;18.75;;;;;19.85;61.35;101324.28;5047726;28;45027;-81
2021/08/31 08:59:55;;;;;;;;;23.25;19.75;;;;;19.91;60.92;101320.22;5047785;28;44827;-81
2021/08/31 09:02:50;;;;;;;;;19.00;17.00;;;;;19.99;60.55;101313.25;5047007;28;44693;-81
2021/08/31 09:05:32;;;;;;;;;19.75;17.50;;;;;20.09;60.30;101315.16;5006289;28;44717;-82
2021/08/31 09:08:06;;;;;;;;;21.50;17.50;;;;;20.27;60.06;101328.97;5007086;28;45260;-80
2021/08/31 09:10:32;;;;;;;;;18.00;17.50;;;;;20.39;60.21;101321.66;5006679;28;44730;-80
2021/08/31 09:12:58;;;;;;;;;23.25;20.00;;;;;20.55;59.44;101322.06;5007525;28;44597;-80
2021/08/31 09:15:49;;;;;;;;;21.50;18.50;;;;;20.72;59.15;101328.72;5007017;28;44733;-84
2021/08/31 09:18:19;;;;;;;;;18.50;18.00;;;;;20.90;58.48;101320.03;4990728;28;47528;-81
2021/08/31 09:20:53;;;;;;;;;20.25;16.25;;;;;21.14;58.93;101323.28;5006957;28;44939;-81
2021/08/31 09:23:20;;;;;;;;;21.75;19.75;;;;;21.49;58.71;101318.44;5007126;28;44672;-81
2021/08/31 09:25:48;;;;;;;;;19.00;18.00;;;;;21.79;57.17;101317.56;5006876;28;44781;-81
2021/08/31 09:28:19;;;;;;;;;22.50;16.25;;;;;22.01;56.89;101324.56;5006787;28;45459;-82
2021/08/31 09:30:45;;;;;;;;;17.25;17.00;;;;;22.10;56.48;101322.84;4990061;28;44955;-84
2021/08/31 09:33:14;;;;;;;;;16.75;16.75;;;;;22.17;55.91;101331.28;5006737;28;44607;-81
2021/08/31 09:35:43;;;;;;;;;23.50;16.50;;;;;22.15;55.76;101330.56;5002265;28;44655;-89
2021/08/31 09:38:11;;;;;;;;;17.50;15.50;;;;;22.08;55.01;101327.56;5004889;28;45255;-79
2021/08/31 09:40:42;;;;;;;;;17.25;16.25;;;;;21.95;55.41;101333.25;5011450;28;44918;-79
2021/08/31 09:43:14;;;;;;;;;17.00;15.00;;;;;21.89;54.86;101323.00;5047503;28;44567;-81
2021/08/31 09:45:42;;;;;;;;;18.25;16.00;;;;;21.90;55.10;101319.28;5047156;28;44745;-80
2021/08/31 09:48:10;;;;;;;;;17.75;16.00;;;;;21.93;54.65;101321.69;5032204;28;47097;-90
2021/08/31 09:50:42;;;;;;;;;19.75;18.00;;;;;21.94;55.12;101320.72;5029145;28;44848;-92
2021/08/31 09:53:19;;;;;;;;;16.75;14.00;;;;;21.89;55.13;101320.28;5039492;28;45093;-92
2021/08/31 09:55:48;;;;;;;;;16.50;16.50;;;;;21.87;55.15;101323.09;5036773;28;44673;-87
2021/08/31 09:58:13;;;;;;;;;16.25;15.00;;;;;21.80;54.70;101326.53;5034490;28;45271;-92
2021/08/31 10:00:41;;;;;;;;;15.25;15.25;;;;;21.76;55.43;101319.69;5042360;28;45176;-89
2021/08/31 10:03:07;;;;;;;;;19.00;14.75;;;;;21.78;54.70;101321.25;5044363;28;44630;-91
2021/08/31 10:05:34;;;;;;;;;15.50;15.00;;;;;21.91;54.51;101320.16;5044782;28;44627;-87
2021/08/31 10:08:02;;;;;;;;;16.00;16.00;;;;;22.02;54.95;101326.28;5050447;28;44968;-84
2021/08/31 10:10:29;;;;;;;;;17.50;13.75;;;;;22.12;54.51;101326.28;5047879;28;44933;-83
2021/08/31 10:12:56;;;;;;;;;15.25;14.25;;;;;22.27;53.61;101325.88;5048341;28;44507;-87
2021/08/31 10:15:22;;;;;;;;;17.00;16.75;;;;;22.34;53.12;101332.44;5045829;28;44583;-92
2021/08/31 10:17:52;;;;;;;;;20.75;18.00;;;;;22.34;53.19;101336.00;5040850;28;45169;-89
2021/08/31 10:20:28;;;;;;;;;23.00;20.75;;;;;22.34;52.79;101329.75;5043242;28;44749;-81
2021/08/31 10:22:57;;;;;;;;;19.00;17.25;;;;;22.56;53.27;101334.88;5048398;28;44677;-88
2021/08/31 10:25:24;;;;;;;;;18.25;17.25;;;;;22.97;52.36;101336.50;5033200;28;45057;-91
2021/08/31 10:27:50;;;;;;;;;19.25;15.25;;;;;23.27;52.01;101343.53;5042915;28;45209;-87
2021/08/31 10:30:22;;;;;;;;;16.75;14.75;;;;;23.42;51.34;101342.06;5030364;28;45224;-93
2021/08/31 10:32:58;;;;;;;;;17.75;14.50;;;;;23.47;51.07;101346.19;5027785;28;45113;-92
2021/08/31 10:35:36;;;;;;;;;14.50;13.25;;;;;23.69;50.81;101332.22;5025332;28;45164;-94
2021/08/31 10:38:05;;;;;;;;;16.50;15.75;;;;;23.88;49.69;101336.69;5024613;28;47381;-92
2021/08/31 10:40:35;;;;;;;;;15.75;15.75;;;;;23.98;49.20;101328.47;5026089;28;45119;-92
2021/08/31 10:43:01;;;;;;;;;17.75;15.75;;;;;23.98;49.73;101333.06;5022878;28;45324;-84
2021/08/31 10:45:38;;;;;;;;;18.25;16.00;;;;;24.16;49.92;101328.50;5018537;28;45287;-85
2021/08/31 10:48:39;;;;;;;;;18.75;16.75;;;;;24.57;49.28;101328.84;5021346;28;46616;-92
2021/08/31 10:51:06;;;;;;;;;19.50;15.75;;;;;24.90;48.74;101322.81;4983277;28;45138;-91
2021/08/31 10:53:46;;;;;;;;;16.75;15.25;;;;;25.23;48.08;101323.00;4979806;28;45335;-93
2021/08/31 10:56:21;;;;;;;;;14.75;13.50;;;;;25.39;47.14;101322.25;4978708;28;45475;-90
2021/08/31 10:58:48;;;;;;;;;19.50;16.00;;;;;25.32;46.55;101325.63;4977654;28;45182;-89
2021/08/31 11:01:16;;;;;;;;;19.75;15.75;;;;;25.14;46.61;101333.84;4961260;28;45245;-87
2021/08/31 11:03:42;;;;;;;;;16.00;16.00;;;;;25.12;47.17;101319.53;4960992;28;45220;-87
2021/08/31 11:06:18;;;;;;;;;16.25;16.00;;;;;25.30;46.82;101310.44;4977774;28;45362;-89
2021/08/31 11:08:44;;;;;;;;;16.00;14.75;;;;;25.47;46.87;101319.56;4981057;28;45278;-88
2021/08/31 11:11:18;;;;;;;;;12.75;12.75;;;;;25.64;46.84;101315.03;4984289;28;45347;-90
2021/08/31 11:13:57;;;;;;;;;13.25;13.25;;;;;25.98;46.37;101320.38;4977757;28;45175;-88